sim
Sign-in with your pilot id or email,
or register
Callsign
Passwort

Schedule Details

Flight Number: OEF9027
Departure: Munich Airport (EDDM) at 20:30
Arrival: Almaty International Airport (UAAA) at 02:05

Weather Information
Getting current METAR information for EDDM 201750Z 04003KT 010V070 CAVOK 16/11 Q1015 NOSIG
Getting current METAR information for UAAA 201730Z VRB01MPS 5000 BR FU NSC 11/06 Q1015 R23L/CLRD65 NOSIG

Schedule Frequency

Route Map